createdAt,value
2019-01-31T00:05:38.394Z,5.27
2019-01-31T00:11:45.654Z,5.70
2019-01-31T00:18:05.581Z,4.90
2019-01-31T00:23:46.698Z,4.80
2019-01-31T00:29:35.250Z,4.20
2019-01-31T00:35:16.887Z,4.73
2019-01-31T00:40:48.967Z,4.37
2019-01-31T00:46:38.220Z,4.47
2019-01-31T00:52:13.346Z,4.47
2019-01-31T00:57:57.232Z,4.47
2019-01-31T01:04:29.442Z,4.27
2019-01-31T01:09:49.412Z,4.57
2019-01-31T01:16:21.099Z,4.73
2019-01-31T01:22:18.078Z,4.80
2019-01-31T01:28:19.711Z,4.30
2019-01-31T01:34:31.453Z,3.67
2019-01-31T01:41:00.680Z,4.10
2019-01-31T01:47:12.494Z,4.60
2019-01-31T01:53:10.421Z,4.77
2019-01-31T01:59:36.965Z,5.30
2019-01-31T02:05:41.207Z,4.43
2019-01-31T02:11:35.552Z,4.73
2019-01-31T02:17:27.722Z,5.00
2019-01-31T02:22:57.519Z,5.10
2019-01-31T02:28:40.277Z,5.00
2019-01-31T02:34:40.533Z,4.93
2019-01-31T02:40:45.284Z,4.63
2019-01-31T02:46:34.295Z,4.80
2019-01-31T02:52:45.372Z,5.10
2019-01-31T02:58:51.837Z,5.03
2019-01-31T03:04:57.628Z,5.10
2019-01-31T03:10:57.782Z,5.13
2019-01-31T03:17:07.740Z,5.70
2019-01-31T03:23:01.947Z,5.30
2019-01-31T03:29:22.274Z,5.83
2019-01-31T03:35:13.146Z,5.57
2019-01-31T03:40:41.613Z,5.53
2019-01-31T03:46:45.225Z,6.50
2019-01-31T03:52:42.668Z,6.13
2019-01-31T03:58:23.485Z,6.43
2019-01-31T04:03:55.023Z,6.10
2019-01-31T04:09:00.376Z,6.33
2019-01-31T04:14:05.937Z,6.33
2019-01-31T04:19:11.245Z,6.57
2019-01-31T04:24:16.566Z,6.33
2019-01-31T04:29:21.870Z,5.80
2019-01-31T04:34:27.171Z,6.07
2019-01-31T04:39:32.568Z,5.70
2019-01-31T04:44:37.863Z,5.67
2019-01-31T04:49:43.125Z,5.60
2019-01-31T04:54:48.457Z,6.40
2019-01-31T04:59:53.758Z,5.73
2019-01-31T05:04:59.116Z,5.30
2019-01-31T05:10:05.256Z,6.43
2019-01-31T05:15:13.046Z,5.90
2019-01-31T05:20:18.963Z,6.40
2019-01-31T05:25:24.253Z,5.63
2019-01-31T05:30:29.554Z,5.93
2019-01-31T05:35:34.847Z,5.80
2019-01-31T05:40:40.198Z,5.77
2019-01-31T05:45:45.496Z,5.07
2019-01-31T05:50:50.826Z,5.93
2019-01-31T05:55:56.128Z,6.47
2019-01-31T06:01:01.432Z,6.10
2019-01-31T06:06:06.713Z,6.60
2019-01-31T06:11:12.018Z,6.47
2019-01-31T06:16:17.525Z,6.30
2019-01-31T06:21:23.002Z,6.50
2019-01-31T06:26:28.293Z,6.90
2019-01-31T06:31:33.629Z,7.70
2019-01-31T06:36:39.069Z,7.50
2019-01-31T06:41:44.378Z,7.47
2019-01-31T06:46:49.615Z,7.63
2019-01-31T06:51:54.936Z,8.13
2019-01-31T06:57:00.243Z,7.33
2019-01-31T07:02:05.556Z,7.93
2019-01-31T07:07:10.854Z,8.07
2019-01-31T07:12:16.186Z,7.93
2019-01-31T07:17:21.456Z,8.00
2019-01-31T07:22:26.766Z,9.00
2019-01-31T07:27:32.221Z,8.60
2019-01-31T07:32:37.521Z,8.57
2019-01-31T07:37:42.917Z,7.87
2019-01-31T07:42:48.272Z,8.93
2019-01-31T07:47:53.727Z,8.33
2019-01-31T07:52:59.086Z,8.53
2019-01-31T07:58:04.417Z,8.50
2019-01-31T08:03:09.760Z,8.23
2019-01-31T08:08:15.307Z,8.60
2019-01-31T08:13:20.626Z,8.90
2019-01-31T08:18:26.126Z,9.13
2019-01-31T08:23:31.443Z,8.43
2019-01-31T08:28:36.816Z,8.60
2019-01-31T08:33:42.181Z,7.83
2019-01-31T08:38:47.522Z,8.47
2019-01-31T08:43:52.824Z,8.17
2019-01-31T08:48:58.150Z,6.87
2019-01-31T08:54:03.642Z,6.90
2019-01-31T08:59:08.926Z,8.03
2019-01-31T09:04:14.221Z,7.57
2019-01-31T09:09:19.507Z,5.77
2019-01-31T09:14:24.801Z,4.80
2019-01-31T09:19:30.094Z,4.27
2019-01-31T09:25:35.350Z,4.80
2019-01-31T09:31:28.171Z,4.23
2019-01-31T09:37:33.804Z,5.63
2019-01-31T09:43:35.247Z,6.23
2019-01-31T09:49:07.251Z,6.90
2019-01-31T09:55:08.846Z,6.20
2019-01-31T10:00:53.548Z,6.40
2019-01-31T10:07:17.210Z,7.07
2019-01-31T10:13:22.245Z,7.60
2019-01-31T10:19:29.153Z,7.30
2019-01-31T10:25:45.772Z,8.17
2019-01-31T10:31:52.384Z,7.77
2019-01-31T10:37:48.850Z,7.27
2019-01-31T10:44:09.301Z,7.80
2019-01-31T10:50:35.517Z,7.50
2019-01-31T10:56:35.858Z,6.90
2019-01-31T11:02:41.971Z,8.40
2019-01-31T11:08:35.326Z,8.13
2019-01-31T11:14:26.871Z,8.33
2019-01-31T11:19:54.147Z,7.37
2019-01-31T11:25:45.815Z,10.43
2019-01-31T11:31:53.919Z,6.67
2019-01-31T11:37:59.919Z,8.30
2019-01-31T11:43:51.216Z,7.30
2019-01-31T11:49:45.458Z,10.57
2019-01-31T11:55:38.875Z,12.93
2019-01-31T12:00:44.223Z,13.47
2019-01-31T12:05:49.550Z,12.10
2019-01-31T12:10:54.826Z,13.00
2019-01-31T12:16:00.153Z,13.70
2019-01-31T12:21:05.518Z,13.23
2019-01-31T12:26:10.837Z,13.87
2019-01-31T12:31:16.138Z,13.40
2019-01-31T12:36:21.463Z,14.93
2019-01-31T12:41:26.814Z,13.87
2019-01-31T12:46:32.829Z,14.07
2019-01-31T12:51:38.243Z,14.50
2019-01-31T12:56:43.528Z,13.03
2019-01-31T13:01:48.878Z,12.30
2019-01-31T13:06:54.252Z,12.10
2019-01-31T13:11:59.520Z,12.43
2019-01-31T13:17:05.926Z,12.30
2019-01-31T13:22:11.200Z,13.57
2019-01-31T13:27:16.539Z,13.97
2019-01-31T13:32:22.010Z,12.57
2019-01-31T13:37:27.363Z,14.90
2019-01-31T13:42:32.672Z,13.73
2019-01-31T13:47:37.979Z,15.07
2019-01-31T13:52:43.289Z,14.03
2019-01-31T13:57:48.714Z,12.67
2019-01-31T14:02:54.047Z,13.60
2019-01-31T14:07:59.457Z,11.87
2019-01-31T14:13:04.778Z,12.80
2019-01-31T14:18:10.128Z,13.70
2019-01-31T14:23:15.545Z,14.83
2019-01-31T14:28:20.855Z,16.70
2019-01-31T14:33:27.258Z,16.37
2019-01-31T14:38:32.668Z,15.73
2019-01-31T14:43:38.029Z,16.17
2019-01-31T14:48:43.504Z,16.70
2019-01-31T14:53:48.861Z,16.77
2019-01-31T14:58:54.451Z,16.33
2019-01-31T15:03:59.742Z,17.30
2019-01-31T15:09:08.829Z,17.87
2019-01-31T15:14:14.247Z,18.17
2019-01-31T15:19:19.617Z,18.87
2019-01-31T15:24:24.921Z,20.30
2019-01-31T15:29:30.174Z,22.20
2019-01-31T15:34:35.505Z,22.50
2019-01-31T15:39:40.830Z,21.73
2019-01-31T15:44:46.174Z,24.57
2019-01-31T15:49:51.485Z,25.47
2019-01-31T15:54:56.842Z,27.07
2019-01-31T16:00:02.175Z,26.50
2019-01-31T16:05:18.615Z,22.57
2019-01-31T16:10:14.621Z,22.63
2019-01-31T16:15:20.282Z,22.43
2019-01-31T16:20:25.679Z,22.50
2019-01-31T16:25:31.007Z,23.43
2019-01-31T16:30:36.317Z,22.03
2019-01-31T16:35:42.836Z,20.87
2019-01-31T16:40:48.182Z,20.60
2019-01-31T16:45:53.472Z,20.70
2019-01-31T16:50:58.836Z,20.10
2019-01-31T16:56:04.125Z,18.67
2019-01-31T17:01:09.499Z,19.73
2019-01-31T17:06:14.890Z,19.53
2019-01-31T17:11:21.730Z,17.47
2019-01-31T17:16:28.728Z,19.63
2019-01-31T17:21:34.105Z,19.07
2019-01-31T17:26:39.448Z,19.77
2019-01-31T17:31:44.940Z,19.30
2019-01-31T17:36:50.314Z,18.93
2019-01-31T17:41:56.021Z,18.80
2019-01-31T17:47:01.641Z,19.80
2019-01-31T17:52:07.203Z,18.73
2019-01-31T17:57:12.763Z,17.20
2019-01-31T18:02:18.975Z,17.13
2019-01-31T18:07:24.661Z,18.57
2019-01-31T18:12:31.121Z,17.03
2019-01-31T18:17:36.509Z,16.90
2019-01-31T18:22:42.081Z,15.63
2019-01-31T18:27:47.429Z,15.37
2019-01-31T18:32:52.730Z,16.10
2019-01-31T18:37:58.156Z,15.23
2019-01-31T18:43:03.779Z,14.20
2019-01-31T18:48:09.166Z,12.27
2019-01-31T18:53:14.558Z,15.07
2019-01-31T18:58:20.391Z,14.70
2019-01-31T19:03:26.255Z,16.53
2019-01-31T19:08:32.205Z,13.10
2019-01-31T19:13:37.883Z,13.97
2019-01-31T19:18:43.574Z,12.83
2019-01-31T19:23:49.401Z,11.80
2019-01-31T19:28:54.921Z,10.90
2019-01-31T19:34:00.476Z,11.53
2019-01-31T19:39:09.874Z,11.63
2019-01-31T19:44:15.334Z,11.77
2019-01-31T19:49:20.784Z,11.77
2019-01-31T19:54:26.353Z,12.00
2019-01-31T19:59:32.139Z,11.97
2019-01-31T20:04:37.663Z,12.97
2019-01-31T20:09:44.971Z,11.53
2019-01-31T20:14:50.380Z,11.77
2019-01-31T20:19:55.827Z,11.50
2019-01-31T20:25:01.240Z,11.20
2019-01-31T20:30:07.934Z,10.67
2019-01-31T20:35:13.497Z,12.37
2019-01-31T20:40:28.087Z,12.17
2019-01-31T20:45:33.501Z,11.33
2019-01-31T20:50:42.946Z,11.10
2019-01-31T20:55:48.468Z,12.17
2019-01-31T21:00:53.877Z,12.00
2019-01-31T21:05:59.258Z,11.67
2019-01-31T21:11:04.595Z,11.37
2019-01-31T21:16:09.925Z,11.50
2019-01-31T21:21:15.289Z,12.10
2019-01-31T21:26:20.655Z,11.97
2019-01-31T21:31:26.039Z,12.10
2019-01-31T21:36:31.436Z,11.80
2019-01-31T21:41:36.798Z,12.23
2019-01-31T21:46:42.126Z,11.70
2019-01-31T21:51:47.462Z,11.47
2019-01-31T21:56:52.757Z,11.93
2019-01-31T22:01:58.040Z,11.50
2019-01-31T22:07:03.371Z,12.40
2019-01-31T22:12:08.736Z,12.40
2019-01-31T22:17:15.055Z,11.80
2019-01-31T22:22:20.468Z,10.70
2019-01-31T22:27:25.765Z,9.93
2019-01-31T22:32:31.689Z,10.57
2019-01-31T22:37:37.080Z,9.97
2019-01-31T22:42:43.161Z,10.30
2019-01-31T22:47:48.555Z,10.90
2019-01-31T22:52:53.950Z,9.90
2019-01-31T22:57:59.295Z,10.03
2019-01-31T23:03:04.677Z,9.30
2019-01-31T23:08:10.212Z,8.37
2019-01-31T23:13:16.180Z,8.33
2019-01-31T23:18:21.564Z,8.57
2019-01-31T23:23:26.857Z,8.60
2019-01-31T23:28:32.119Z,7.53
2019-01-31T23:33:37.413Z,6.90
2019-01-31T23:38:42.752Z,8.03
2019-01-31T23:43:48.063Z,7.43
2019-01-31T23:48:53.374Z,7.70
2019-01-31T23:53:58.616Z,7.50
2019-01-31T23:59:03.898Z,6.90
